Axtell, NE (68924)

7:03 AM CDT on August 05, 2015 (GMT -0500)
Axtell, NE | | Change Station
CLOSE
Current Station
Personal Weather Station
Location: Axtell, NE
Elevation: 2234 ft
Nearby Weather Stations

Elev 2234 ft 40.48 °N, 99.08 °W | Updated 10 seconds ago

Fog
Fog
62.1 °F
Feels Like 62.1 °F
N
3.6
Wind Variable Wind from ENE
Gusts 4.9 mph

Today
High -- | Low -- °F
--% Chance of Precip.
Yesterday
High -- | Low -- °F
Precip. -- in
6:37 AM 8:47 PM
Waning Gibbous, 68% visible
Pressure 30.01 in
Visibility 0.2 miles
Clouds Overcast 100 ft
Dew Point 62 °F
Humidity 98%
Rainfall 0.00 in
Snow Depth Not available.
UV 0.0 out of 12
Pollen .20 out of 12
Air Quality Not available.
Flu Activity Not available.
METAR KHDE 051155Z AUTO 00000KT M1/4SM FG OVC001 15/14 A3001 RMK AO2 LTG DSNT S 70070 T01500143 10173 20150

More Conditions Fewer Conditions

Pressure 30.01 in
Visibility 0.2 miles
Clouds Overcast 100 ft
Dew Point 62 °F
Humidity 98%
Rainfall 0.00 in
Snow Depth Not available.
UV 0.0 out of 12
Pollen .20 out of 12
Air Quality Not available.
Flu Activity Not available.
METAR KHDE 051155Z AUTO 00000KT M1/4SM FG OVC001 15/14 A3001 RMK AO2 LTG DSNT S 70070 T01500143 10173 20150

More Conditions Fewer Conditions

10-Day Weather Forecast

×

Almanac

Astronomy

Aug. 05, 2015 Rise Set
Actual Time
Civil Twilight
Nautical Twilight
Astronomical Twilight
Moon
Length of Visible Light
Length of Day
Tomorrow will be .
, % of the Moon is Illuminated

Today's Extremes

State Highs State Lows

Community

WunderPhotos

Upload Photos

1,844,157 photos uploaded!

WunderBlogs® & News

Nearby

Air Quality

  Air Quality AQ Index Pollutant
Not available.

Snow Depth

Station Depth Elevation

Earthquake Activity

City Distance Mag. Time & Date
Minimum magnitude displayed is 2.5.

Coastal Water Temperatures

Place Temperature

Stations

Nearby Weather Stations

Station Location Temp. Windchill Dew Point Humidity Wind Precip. Elev Updated Type